sensor_id;sensor_type;location;lat;lon;timestamp;P1;durP1;ratioP1;P2;durP2;ratioP2
7001;SDS011;3541;53.230;10.518;2023-07-31T00:01:35;4.18;;;2.00;;
7001;SDS011;3541;53.230;10.518;2023-07-31T00:04:02;5.65;;;2.30;;
7001;SDS011;3541;53.230;10.518;2023-07-31T00:06:28;3.63;;;2.33;;
7001;SDS011;3541;53.230;10.518;2023-07-31T00:08:55;4.45;;;2.22;;
7001;SDS011;3541;53.230;10.518;2023-07-31T00:11:23;3.80;;;1.83;;
7001;SDS011;3541;53.230;10.518;2023-07-31T00:13:50;2.97;;;1.90;;
7001;SDS011;3541;53.230;10.518;2023-07-31T00:16:16;4.72;;;1.95;;
7001;SDS011;3541;53.230;10.518;2023-07-31T00:18:43;3.22;;;1.77;;
7001;SDS011;3541;53.230;10.518;2023-07-31T00:21:09;4.22;;;1.80;;
7001;SDS011;3541;53.230;10.518;2023-07-31T00:23:36;3.15;;;1.63;;
7001;SDS011;3541;53.230;10.518;2023-07-31T00:26:03;3.83;;;2.20;;
7001;SDS011;3541;53.230;10.518;2023-07-31T00:28:30;2.60;;;1.83;;
7001;SDS011;3541;53.230;10.518;2023-07-31T00:30:57;3.38;;;1.88;;
7001;SDS011;3541;53.230;10.518;2023-07-31T00:33:24;7.20;;;2.10;;
7001;SDS011;3541;53.230;10.518;2023-07-31T00:35:50;3.30;;;1.70;;
7001;SDS011;3541;53.230;10.518;2023-07-31T00:38:17;3.60;;;1.83;;
7001;SDS011;3541;53.230;10.518;2023-07-31T00:40:43;6.30;;;2.03;;
7001;SDS011;3541;53.230;10.518;2023-07-31T00:43:10;3.38;;;2.05;;
7001;SDS011;3541;53.230;10.518;2023-07-31T00:45:38;5.35;;;2.15;;
7001;SDS011;3541;53.230;10.518;2023-07-31T00:48:05;3.30;;;1.70;;
7001;SDS011;3541;53.230;10.518;2023-07-31T00:50:32;3.30;;;2.20;;
7001;SDS011;3541;53.230;10.518;2023-07-31T00:53:00;5.38;;;2.55;;
7001;SDS011;3541;53.230;10.518;2023-07-31T00:55:26;6.63;;;2.10;;
7001;SDS011;3541;53.230;10.518;2023-07-31T00:57:53;3.40;;;1.83;;
7001;SDS011;3541;53.230;10.518;2023-07-31T01:00:21;3.83;;;1.80;;
7001;SDS011;3541;53.230;10.518;2023-07-31T01:02:49;6.65;;;2.17;;
7001;SDS011;3541;53.230;10.518;2023-07-31T01:05:17;5.90;;;2.05;;
7001;SDS011;3541;53.230;10.518;2023-07-31T01:07:51;5.53;;;1.83;;
7001;SDS011;3541;53.230;10.518;2023-07-31T01:10:23;3.03;;;2.00;;
7001;SDS011;3541;53.230;10.518;2023-07-31T01:12:53;3.15;;;1.90;;
7001;SDS011;3541;53.230;10.518;2023-07-31T01:15:22;4.93;;;1.80;;
7001;SDS011;3541;53.230;10.518;2023-07-31T01:17:50;2.88;;;1.83;;
7001;SDS011;3541;53.230;10.518;2023-07-31T01:20:17;3.92;;;1.85;;
7001;SDS011;3541;53.230;10.518;2023-07-31T01:22:54;4.90;;;1.92;;
7001;SDS011;3541;53.230;10.518;2023-07-31T01:25:53;3.25;;;1.92;;
7001;SDS011;3541;53.230;10.518;2023-07-31T01:28:29;5.65;;;2.08;;
7001;SDS011;3541;53.230;10.518;2023-07-31T01:31:04;2.83;;;1.90;;
7001;SDS011;3541;53.230;10.518;2023-07-31T01:33:35;3.65;;;2.03;;
7001;SDS011;3541;53.230;10.518;2023-07-31T01:36:03;2.75;;;1.98;;
7001;SDS011;3541;53.230;10.518;2023-07-31T01:38:30;6.65;;;2.03;;
7001;SDS011;3541;53.230;10.518;2023-07-31T01:40:58;4.00;;;2.10;;
7001;SDS011;3541;53.230;10.518;2023-07-31T01:43:25;3.55;;;2.10;;
7001;SDS011;3541;53.230;10.518;2023-07-31T01:45:51;7.70;;;2.67;;
7001;SDS011;3541;53.230;10.518;2023-07-31T01:48:18;5.00;;;2.67;;
7001;SDS011;3541;53.230;10.518;2023-07-31T01:50:45;4.00;;;2.10;;
7001;SDS011;3541;53.230;10.518;2023-07-31T01:53:11;3.33;;;1.90;;
7001;SDS011;3541;53.230;10.518;2023-07-31T01:55:38;7.95;;;2.22;;
7001;SDS011;3541;53.230;10.518;2023-07-31T01:58:06;2.33;;;1.88;;
7001;SDS011;3541;53.230;10.518;2023-07-31T02:00:33;4.00;;;2.35;;
7001;SDS011;3541;53.230;10.518;2023-07-31T02:02:59;4.28;;;2.33;;
7001;SDS011;3541;53.230;10.518;2023-07-31T02:05:26;2.13;;;1.92;;
7001;SDS011;3541;53.230;10.518;2023-07-31T02:07:52;5.75;;;2.40;;
7001;SDS011;3541;53.230;10.518;2023-07-31T02:10:19;5.90;;;2.53;;
7001;SDS011;3541;53.230;10.518;2023-07-31T02:12:45;4.78;;;2.08;;
7001;SDS011;3541;53.230;10.518;2023-07-31T02:15:13;3.42;;;2.20;;
7001;SDS011;3541;53.230;10.518;2023-07-31T02:17:40;4.30;;;2.40;;
7001;SDS011;3541;53.230;10.518;2023-07-31T02:20:07;7.75;;;2.50;;
7001;SDS011;3541;53.230;10.518;2023-07-31T02:22:34;5.10;;;2.03;;
7001;SDS011;3541;53.230;10.518;2023-07-31T02:25:01;5.32;;;2.55;;
7001;SDS011;3541;53.230;10.518;2023-07-31T02:27:28;6.75;;;2.55;;
7001;SDS011;3541;53.230;10.518;2023-07-31T02:29:54;6.43;;;3.88;;
7001;SDS011;3541;53.230;10.518;2023-07-31T02:32:22;2.70;;;2.42;;
7001;SDS011;3541;53.230;10.518;2023-07-31T02:34:49;4.47;;;2.33;;
7001;SDS011;3541;53.230;10.518;2023-07-31T02:37:15;3.40;;;2.50;;
7001;SDS011;3541;53.230;10.518;2023-07-31T02:39:42;4.22;;;3.13;;
7001;SDS011;3541;53.230;10.518;2023-07-31T02:42:09;4.75;;;2.90;;
7001;SDS011;3541;53.230;10.518;2023-07-31T02:44:35;4.68;;;2.58;;
7001;SDS011;3541;53.230;10.518;2023-07-31T02:47:02;7.72;;;3.03;;
7001;SDS011;3541;53.230;10.518;2023-07-31T02:49:30;8.57;;;3.47;;
7001;SDS011;3541;53.230;10.518;2023-07-31T02:51:57;5.93;;;2.92;;
7001;SDS011;3541;53.230;10.518;2023-07-31T02:54:23;4.65;;;3.20;;
7001;SDS011;3541;53.230;10.518;2023-07-31T02:56:50;4.60;;;3.10;;
7001;SDS011;3541;53.230;10.518;2023-07-31T02:59:17;6.50;;;3.53;;
7001;SDS011;3541;53.230;10.518;2023-07-31T03:01:44;5.65;;;3.42;;
7001;SDS011;3541;53.230;10.518;2023-07-31T03:04:10;6.88;;;3.90;;
7001;SDS011;3541;53.230;10.518;2023-07-31T03:06:38;5.78;;;3.90;;
7001;SDS011;3541;53.230;10.518;2023-07-31T03:09:05;6.38;;;4.03;;
7001;SDS011;3541;53.230;10.518;2023-07-31T03:11:31;6.38;;;3.50;;
7001;SDS011;3541;53.230;10.518;2023-07-31T03:13:58;6.10;;;3.72;;
7001;SDS011;3541;53.230;10.518;2023-07-31T03:16:25;7.03;;;4.00;;
7001;SDS011;3541;53.230;10.518;2023-07-31T03:18:51;4.97;;;3.40;;
7001;SDS011;3541;53.230;10.518;2023-07-31T03:21:18;8.23;;;4.05;;
7001;SDS011;3541;53.230;10.518;2023-07-31T03:23:46;4.20;;;3.80;;
7001;SDS011;3541;53.230;10.518;2023-07-31T03:26:12;6.15;;;3.97;;
7001;SDS011;3541;53.230;10.518;2023-07-31T03:28:39;4.68;;;4.28;;
7001;SDS011;3541;53.230;10.518;2023-07-31T03:31:05;5.35;;;3.63;;
7001;SDS011;3541;53.230;10.518;2023-07-31T03:33:33;7.15;;;4.20;;
7001;SDS011;3541;53.230;10.518;2023-07-31T03:36:00;5.47;;;3.70;;
7001;SDS011;3541;53.230;10.518;2023-07-31T03:38:27;5.13;;;4.15;;
7001;SDS011;3541;53.230;10.518;2023-07-31T03:40:54;7.05;;;4.00;;
7001;SDS011;3541;53.230;10.518;2023-07-31T03:43:21;4.65;;;3.95;;
7001;SDS011;3541;53.230;10.518;2023-07-31T03:45:48;4.63;;;3.72;;
7001;SDS011;3541;53.230;10.518;2023-07-31T03:48:14;4.85;;;4.03;;
7001;SDS011;3541;53.230;10.518;2023-07-31T03:50:41;5.03;;;3.97;;
7001;SDS011;3541;53.230;10.518;2023-07-31T03:53:08;5.18;;;3.40;;
7001;SDS011;3541;53.230;10.518;2023-07-31T03:55:34;5.43;;;3.80;;
7001;SDS011;3541;53.230;10.518;2023-07-31T03:58:02;4.70;;;4.13;;
7001;SDS011;3541;53.230;10.518;2023-07-31T04:00:29;6.28;;;4.40;;
7001;SDS011;3541;53.230;10.518;2023-07-31T04:02:55;6.93;;;4.13;;
7001;SDS011;3541;53.230;10.518;2023-07-31T04:05:22;6.32;;;4.53;;
7001;SDS011;3541;53.230;10.518;2023-07-31T04:07:49;6.53;;;4.10;;
7001;SDS011;3541;53.230;10.518;2023-07-31T04:10:15;4.25;;;3.85;;
7001;SDS011;3541;53.230;10.518;2023-07-31T04:12:42;6.20;;;4.13;;
7001;SDS011;3541;53.230;10.518;2023-07-31T04:15:10;6.63;;;4.10;;
7001;SDS011;3541;53.230;10.518;2023-07-31T04:17:36;5.95;;;4.22;;
7001;SDS011;3541;53.230;10.518;2023-07-31T04:20:03;6.57;;;4.28;;
7001;SDS011;3541;53.230;10.518;2023-07-31T04:22:31;5.63;;;4.13;;
7001;SDS011;3541;53.230;10.518;2023-07-31T04:24:57;6.15;;;4.18;;
7001;SDS011;3541;53.230;10.518;2023-07-31T04:27:24;5.75;;;4.18;;
7001;SDS011;3541;53.230;10.518;2023-07-31T04:29:51;4.13;;;3.63;;
7001;SDS011;3541;53.230;10.518;2023-07-31T04:32:18;5.22;;;3.80;;
7001;SDS011;3541;53.230;10.518;2023-07-31T04:34:46;5.28;;;4.20;;
7001;SDS011;3541;53.230;10.518;2023-07-31T04:37:12;6.57;;;4.22;;
7001;SDS011;3541;53.230;10.518;2023-07-31T04:39:39;6.55;;;4.18;;
7001;SDS011;3541;53.230;10.518;2023-07-31T04:42:06;4.53;;;4.10;;
7001;SDS011;3541;53.230;10.518;2023-07-31T04:44:32;7.85;;;4.07;;
7001;SDS011;3541;53.230;10.518;2023-07-31T04:46:59;4.97;;;4.18;;
7001;SDS011;3541;53.230;10.518;2023-07-31T04:49:29;3.97;;;3.60;;
7001;SDS011;3541;53.230;10.518;2023-07-31T04:51:55;4.05;;;3.63;;
7001;SDS011;3541;53.230;10.518;2023-07-31T04:54:22;4.40;;;3.42;;
7001;SDS011;3541;53.230;10.518;2023-07-31T04:56:49;4.47;;;3.42;;
7001;SDS011;3541;53.230;10.518;2023-07-31T04:59:15;4.43;;;3.40;;
7001;SDS011;3541;53.230;10.518;2023-07-31T05:01:42;3.97;;;3.13;;
7001;SDS011;3541;53.230;10.518;2023-07-31T05:04:10;4.55;;;3.30;;
7001;SDS011;3541;53.230;10.518;2023-07-31T05:06:39;4.40;;;3.45;;
7001;SDS011;3541;53.230;10.518;2023-07-31T05:09:06;4.45;;;3.42;;
7001;SDS011;3541;53.230;10.518;2023-07-31T05:11:34;4.70;;;3.38;;
7001;SDS011;3541;53.230;10.518;2023-07-31T05:14:00;5.22;;;3.58;;
7001;SDS011;3541;53.230;10.518;2023-07-31T05:16:27;4.50;;;3.58;;
7001;SDS011;3541;53.230;10.518;2023-07-31T05:18:54;5.50;;;3.50;;
7001;SDS011;3541;53.230;10.518;2023-07-31T05:21:20;5.38;;;3.42;;
7001;SDS011;3541;53.230;10.518;2023-07-31T05:23:48;3.78;;;3.38;;
7001;SDS011;3541;53.230;10.518;2023-07-31T05:26:15;4.40;;;3.08;;
7001;SDS011;3541;53.230;10.518;2023-07-31T05:28:42;3.30;;;3.00;;
7001;SDS011;3541;53.230;10.518;2023-07-31T05:31:09;3.72;;;3.00;;
7001;SDS011;3541;53.230;10.518;2023-07-31T05:33:35;7.85;;;4.13;;
7001;SDS011;3541;53.230;10.518;2023-07-31T05:36:02;4.63;;;3.00;;
7001;SDS011;3541;53.230;10.518;2023-07-31T05:38:29;3.05;;;2.83;;
7001;SDS011;3541;53.230;10.518;2023-07-31T05:40:57;3.25;;;2.78;;
7001;SDS011;3541;53.230;10.518;2023-07-31T05:43:23;3.17;;;2.90;;
7001;SDS011;3541;53.230;10.518;2023-07-31T05:45:50;3.63;;;3.20;;
7001;SDS011;3541;53.230;10.518;2023-07-31T05:48:17;3.70;;;3.10;;
7001;SDS011;3541;53.230;10.518;2023-07-31T05:50:43;3.17;;;2.88;;
7001;SDS011;3541;53.230;10.518;2023-07-31T05:53:10;3.13;;;2.78;;
7001;SDS011;3541;53.230;10.518;2023-07-31T05:55:37;3.03;;;2.78;;
7001;SDS011;3541;53.230;10.518;2023-07-31T05:58:05;3.85;;;2.70;;
7001;SDS011;3541;53.230;10.518;2023-07-31T06:00:31;2.97;;;2.72;;
7001;SDS011;3541;53.230;10.518;2023-07-31T06:02:58;3.20;;;2.78;;
7001;SDS011;3541;53.230;10.518;2023-07-31T06:05:24;2.75;;;2.53;;
7001;SDS011;3541;53.230;10.518;2023-07-31T06:07:51;2.55;;;2.35;;
7001;SDS011;3541;53.230;10.518;2023-07-31T06:10:17;4.13;;;2.35;;
7001;SDS011;3541;53.230;10.518;2023-07-31T06:12:44;2.67;;;2.35;;
7001;SDS011;3541;53.230;10.518;2023-07-31T06:15:12;3.35;;;2.20;;
7001;SDS011;3541;53.230;10.518;2023-07-31T06:17:39;2.80;;;2.60;;
7001;SDS011;3541;53.230;10.518;2023-07-31T06:20:06;2.80;;;2.60;;
7001;SDS011;3541;53.230;10.518;2023-07-31T06:22:33;2.40;;;2.20;;
7001;SDS011;3541;53.230;10.518;2023-07-31T06:25:00;2.50;;;2.30;;
7001;SDS011;3541;53.230;10.518;2023-07-31T06:27:26;3.38;;;2.53;;
7001;SDS011;3541;53.230;10.518;2023-07-31T06:29:53;2.33;;;2.13;;
7001;SDS011;3541;53.230;10.518;2023-07-31T06:32:21;2.15;;;1.92;;
7001;SDS011;3541;53.230;10.518;2023-07-31T06:34:47;2.58;;;2.25;;
7001;SDS011;3541;53.230;10.518;2023-07-31T06:37:14;2.28;;;1.95;;
7001;SDS011;3541;53.230;10.518;2023-07-31T06:39:41;2.38;;;2.17;;
7001;SDS011;3541;53.230;10.518;2023-07-31T06:42:07;2.22;;;2.03;;
7001;SDS011;3541;53.230;10.518;2023-07-31T06:44:34;2.08;;;1.80;;
7001;SDS011;3541;53.230;10.518;2023-07-31T06:47:00;1.80;;;1.70;;
7001;SDS011;3541;53.230;10.518;2023-07-31T06:49:28;3.20;;;1.70;;
7001;SDS011;3541;53.230;10.518;2023-07-31T06:51:55;2.58;;;1.98;;
7001;SDS011;3541;53.230;10.518;2023-07-31T06:54:22;1.73;;;1.63;;
7001;SDS011;3541;53.230;10.518;2023-07-31T06:56:48;3.55;;;2.00;;
7001;SDS011;3541;53.230;10.518;2023-07-31T06:59:15;1.80;;;1.70;;
7001;SDS011;3541;53.230;10.518;2023-07-31T07:01:41;2.20;;;2.00;;
7001;SDS011;3541;53.230;10.518;2023-07-31T07:04:08;2.03;;;1.80;;
7001;SDS011;3541;53.230;10.518;2023-07-31T07:06:36;2.17;;;1.88;;
7001;SDS011;3541;53.230;10.518;2023-07-31T07:09:02;2.08;;;1.80;;
7001;SDS011;3541;53.230;10.518;2023-07-31T07:11:29;1.73;;;1.55;;
7001;SDS011;3541;53.230;10.518;2023-07-31T07:13:55;1.83;;;1.63;;
7001;SDS011;3541;53.230;10.518;2023-07-31T07:16:22;1.70;;;1.60;;
7001;SDS011;3541;53.230;10.518;2023-07-31T07:18:49;1.73;;;1.60;;
7001;SDS011;3541;53.230;10.518;2023-07-31T07:21:15;2.45;;;1.60;;
7001;SDS011;3541;53.230;10.518;2023-07-31T07:23:44;1.73;;;1.63;;
7001;SDS011;3541;53.230;10.518;2023-07-31T07:26:10;1.83;;;1.60;;
7001;SDS011;3541;53.230;10.518;2023-07-31T07:28:37;1.40;;;1.30;;
7001;SDS011;3541;53.230;10.518;2023-07-31T07:31:04;1.70;;;1.50;;
7001;SDS011;3541;53.230;10.518;2023-07-31T07:33:30;1.70;;;1.60;;
7001;SDS011;3541;53.230;10.518;2023-07-31T07:35:59;1.52;;;1.35;;
7001;SDS011;3541;53.230;10.518;2023-07-31T07:38:26;1.45;;;1.13;;
7001;SDS011;3541;53.230;10.518;2023-07-31T07:40:54;1.50;;;1.40;;
7001;SDS011;3541;53.230;10.518;2023-07-31T07:43:21;1.50;;;1.40;;
7001;SDS011;3541;53.230;10.518;2023-07-31T07:45:47;1.70;;;1.58;;
7001;SDS011;3541;53.230;10.518;2023-07-31T07:48:14;1.98;;;1.73;;
7001;SDS011;3541;53.230;10.518;2023-07-31T07:50:42;1.60;;;1.50;;
7001;SDS011;3541;53.230;10.518;2023-07-31T07:53:08;1.65;;;1.42;;
7001;SDS011;3541;53.230;10.518;2023-07-31T07:55:35;1.83;;;1.70;;
7001;SDS011;3541;53.230;10.518;2023-07-31T07:58:03;4.13;;;1.70;;
7001;SDS011;3541;53.230;10.518;2023-07-31T08:00:29;3.92;;;1.83;;
7001;SDS011;3541;53.230;10.518;2023-07-31T08:02:56;1.50;;;1.40;;
7001;SDS011;3541;53.230;10.518;2023-07-31T08:05:23;2.22;;;1.65;;
7001;SDS011;3541;53.230;10.518;2023-07-31T08:07:50;1.70;;;1.60;;
7001;SDS011;3541;53.230;10.518;2023-07-31T08:10:16;1.42;;;1.27;;
7001;SDS011;3541;53.230;10.518;2023-07-31T08:12:43;1.60;;;1.50;;
7001;SDS011;3541;53.230;10.518;2023-07-31T08:15:11;1.50;;;1.40;;
7001;SDS011;3541;53.230;10.518;2023-07-31T08:17:37;1.45;;;1.35;;
7001;SDS011;3541;53.230;10.518;2023-07-31T08:20:04;1.40;;;1.30;;
7001;SDS011;3541;53.230;10.518;2023-07-31T08:22:32;2.53;;;1.30;;
7001;SDS011;3541;53.230;10.518;2023-07-31T08:24:59;1.40;;;1.30;;
7001;SDS011;3541;53.230;10.518;2023-07-31T08:27:25;1.30;;;1.20;;
7001;SDS011;3541;53.230;10.518;2023-07-31T08:29:52;2.75;;;1.23;;
7001;SDS011;3541;53.230;10.518;2023-07-31T08:32:20;1.30;;;1.20;;
7001;SDS011;3541;53.230;10.518;2023-07-31T08:34:46;1.63;;;1.30;;
7001;SDS011;3541;53.230;10.518;2023-07-31T08:37:14;2.10;;;1.40;;
7001;SDS011;3541;53.230;10.518;2023-07-31T08:39:41;1.10;;;1.10;;
7001;SDS011;3541;53.230;10.518;2023-07-31T08:42:07;1.38;;;1.20;;
7001;SDS011;3541;53.230;10.518;2023-07-31T08:44:35;1.17;;;1.08;;
7001;SDS011;3541;53.230;10.518;2023-07-31T08:47:02;1.25;;;1.10;;
7001;SDS011;3541;53.230;10.518;2023-07-31T08:49:30;1.30;;;1.20;;
7001;SDS011;3541;53.230;10.518;2023-07-31T08:51:58;1.30;;;1.20;;
7001;SDS011;3541;53.230;10.518;2023-07-31T08:54:25;1.17;;;1.08;;
7001;SDS011;3541;53.230;10.518;2023-07-31T08:56:55;1.30;;;1.15;;
7001;SDS011;3541;53.230;10.518;2023-07-31T08:59:24;0.93;;;0.93;;
7001;SDS011;3541;53.230;10.518;2023-07-31T09:01:53;1.02;;;1.00;;
7001;SDS011;3541;53.230;10.518;2023-07-31T09:04:23;1.20;;;1.08;;
7001;SDS011;3541;53.230;10.518;2023-07-31T09:06:52;1.17;;;1.00;;
7001;SDS011;3541;53.230;10.518;2023-07-31T09:09:25;0.95;;;0.90;;
7001;SDS011;3541;53.230;10.518;2023-07-31T09:11:52;1.13;;;1.10;;
7001;SDS011;3541;53.230;10.518;2023-07-31T09:14:19;1.00;;;1.00;;
7001;SDS011;3541;53.230;10.518;2023-07-31T09:16:52;1.20;;;1.10;;
7001;SDS011;3541;53.230;10.518;2023-07-31T09:19:26;1.20;;;1.10;;
7001;SDS011;3541;53.230;10.518;2023-07-31T09:21:54;0.95;;;0.95;;
7001;SDS011;3541;53.230;10.518;2023-07-31T09:24:24;1.10;;;1.00;;
7001;SDS011;3541;53.230;10.518;2023-07-31T09:26:53;1.13;;;1.02;;
7001;SDS011;3541;53.230;10.518;2023-07-31T09:29:20;1.65;;;1.45;;
7001;SDS011;3541;53.230;10.518;2023-07-31T09:31:47;1.40;;;1.30;;
7001;SDS011;3541;53.230;10.518;2023-07-31T09:34:13;2.25;;;1.30;;
7001;SDS011;3541;53.230;10.518;2023-07-31T09:36:40;1.60;;;1.48;;
7001;SDS011;3541;53.230;10.518;2023-07-31T09:39:10;1.98;;;1.83;;
7001;SDS011;3541;53.230;10.518;2023-07-31T09:41:37;3.10;;;2.00;;
7001;SDS011;3541;53.230;10.518;2023-07-31T09:44:05;3.85;;;2.05;;
7001;SDS011;3541;53.230;10.518;2023-07-31T09:46:32;3.72;;;2.10;;
7001;SDS011;3541;53.230;10.518;2023-07-31T09:49:05;3.35;;;2.15;;
7001;SDS011;3541;53.230;10.518;2023-07-31T09:51:34;3.30;;;2.55;;
7001;SDS011;3541;53.230;10.518;2023-07-31T09:54:03;5.00;;;3.30;;
7001;SDS011;3541;53.230;10.518;2023-07-31T09:56:38;5.85;;;3.70;;
7001;SDS011;3541;53.230;10.518;2023-07-31T09:59:10;6.75;;;4.35;;
7001;SDS011;3541;53.230;10.518;2023-07-31T10:01:37;9.52;;;4.72;;
7001;SDS011;3541;53.230;10.518;2023-07-31T10:04:05;9.00;;;5.28;;
7001;SDS011;3541;53.230;10.518;2023-07-31T10:06:33;10.50;;;5.63;;
7001;SDS011;3541;53.230;10.518;2023-07-31T10:09:01;7.78;;;4.78;;
7001;SDS011;3541;53.230;10.518;2023-07-31T10:11:29;9.25;;;5.28;;
7001;SDS011;3541;53.230;10.518;2023-07-31T10:13:59;10.55;;;5.57;;
7001;SDS011;3541;53.230;10.518;2023-07-31T10:16:26;8.60;;;5.13;;
7001;SDS011;3541;53.230;10.518;2023-07-31T10:18:52;9.00;;;5.32;;
7001;SDS011;3541;53.230;10.518;2023-07-31T10:21:20;9.68;;;5.03;;
7001;SDS011;3541;53.230;10.518;2023-07-31T10:23:47;9.65;;;5.63;;
7001;SDS011;3541;53.230;10.518;2023-07-31T10:26:14;8.23;;;5.38;;
7001;SDS011;3541;53.230;10.518;2023-07-31T10:28:44;12.90;;;5.80;;
7001;SDS011;3541;53.230;10.518;2023-07-31T10:31:12;11.80;;;6.18;;
7001;SDS011;3541;53.230;10.518;2023-07-31T10:33:40;11.65;;;5.60;;
7001;SDS011;3541;53.230;10.518;2023-07-31T10:36:13;8.80;;;5.53;;
7001;SDS011;3541;53.230;10.518;2023-07-31T10:38:41;11.07;;;5.80;;
7001;SDS011;3541;53.230;10.518;2023-07-31T10:41:08;8.75;;;5.82;;
7001;SDS011;3541;53.230;10.518;2023-07-31T10:43:35;10.20;;;6.10;;
7001;SDS011;3541;53.230;10.518;2023-07-31T10:46:07;11.35;;;5.30;;
7001;SDS011;3541;53.230;10.518;2023-07-31T10:48:34;12.82;;;6.18;;
7001;SDS011;3541;53.230;10.518;2023-07-31T10:51:06;9.50;;;5.25;;
7001;SDS011;3541;53.230;10.518;2023-07-31T10:53:35;8.48;;;5.35;;
7001;SDS011;3541;53.230;10.518;2023-07-31T10:56:03;11.07;;;5.68;;
7001;SDS011;3541;53.230;10.518;2023-07-31T10:58:30;10.35;;;5.10;;
7001;SDS011;3541;53.230;10.518;2023-07-31T11:00:58;8.43;;;4.78;;
7001;SDS011;3541;53.230;10.518;2023-07-31T11:03:27;6.90;;;4.93;;
7001;SDS011;3541;53.230;10.518;2023-07-31T11:06:07;10.13;;;4.68;;
7001;SDS011;3541;53.230;10.518;2023-07-31T11:08:34;11.15;;;5.20;;
7001;SDS011;3541;53.230;10.518;2023-07-31T11:11:07;7.05;;;3.95;;
7001;SDS011;3541;53.230;10.518;2023-07-31T11:13:39;9.00;;;4.45;;
7001;SDS011;3541;53.230;10.518;2023-07-31T11:16:07;8.32;;;4.85;;
7001;SDS011;3541;53.230;10.518;2023-07-31T11:18:35;5.15;;;4.03;;
7001;SDS011;3541;53.230;10.518;2023-07-31T11:21:04;6.38;;;3.97;;
7001;SDS011;3541;53.230;10.518;2023-07-31T11:23:30;7.30;;;4.10;;
7001;SDS011;3541;53.230;10.518;2023-07-31T11:25:59;7.65;;;4.03;;
7001;SDS011;3541;53.230;10.518;2023-07-31T11:28:26;6.55;;;3.92;;
7001;SDS011;3541;53.230;10.518;2023-07-31T11:30:58;7.63;;;3.13;;
7001;SDS011;3541;53.230;10.518;2023-07-31T11:33:25;6.03;;;3.65;;
7001;SDS011;3541;53.230;10.518;2023-07-31T11:35:53;4.43;;;3.30;;
7001;SDS011;3541;53.230;10.518;2023-07-31T11:38:23;5.97;;;3.65;;
7001;SDS011;3541;53.230;10.518;2023-07-31T11:40:51;4.63;;;3.72;;
7001;SDS011;3541;53.230;10.518;2023-07-31T11:43:18;4.65;;;3.70;;
7001;SDS011;3541;53.230;10.518;2023-07-31T11:45:46;6.40;;;3.30;;
7001;SDS011;3541;53.230;10.518;2023-07-31T11:48:21;6.50;;;3.20;;
7001;SDS011;3541;53.230;10.518;2023-07-31T11:50:49;5.03;;;2.90;;
7001;SDS011;3541;53.230;10.518;2023-07-31T11:53:18;4.15;;;2.90;;
7001;SDS011;3541;53.230;10.518;2023-07-31T11:55:48;4.78;;;2.70;;
7001;SDS011;3541;53.230;10.518;2023-07-31T11:58:15;4.13;;;3.00;;
7001;SDS011;3541;53.230;10.518;2023-07-31T12:00:43;3.38;;;2.80;;
7001;SDS011;3541;53.230;10.518;2023-07-31T12:03:10;4.82;;;2.63;;
7001;SDS011;3541;53.230;10.518;2023-07-31T12:05:37;4.43;;;2.83;;
7001;SDS011;3541;53.230;10.518;2023-07-31T12:08:08;3.40;;;2.58;;
7001;SDS011;3541;53.230;10.518;2023-07-31T12:10:37;3.55;;;2.30;;
7001;SDS011;3541;53.230;10.518;2023-07-31T12:13:07;2.75;;;2.50;;
7001;SDS011;3541;53.230;10.518;2023-07-31T12:15:36;3.22;;;2.30;;
7001;SDS011;3541;53.230;10.518;2023-07-31T12:18:05;2.67;;;2.33;;
7001;SDS011;3541;53.230;10.518;2023-07-31T12:20:33;3.15;;;2.70;;
7001;SDS011;3541;53.230;10.518;2023-07-31T12:23:00;4.53;;;2.65;;
7001;SDS011;3541;53.230;10.518;2023-07-31T12:25:31;2.55;;;2.35;;
7001;SDS011;3541;53.230;10.518;2023-07-31T12:28:05;2.97;;;2.58;;
7001;SDS011;3541;53.230;10.518;2023-07-31T12:30:36;2.88;;;2.67;;
7001;SDS011;3541;53.230;10.518;2023-07-31T12:33:03;2.55;;;1.95;;
7001;SDS011;3541;53.230;10.518;2023-07-31T12:35:34;2.42;;;2.10;;
7001;SDS011;3541;53.230;10.518;2023-07-31T12:38:02;3.38;;;2.50;;
7001;SDS011;3541;53.230;10.518;2023-07-31T12:40:29;3.00;;;2.70;;
7001;SDS011;3541;53.230;10.518;2023-07-31T12:42:56;2.25;;;2.05;;
7001;SDS011;3541;53.230;10.518;2023-07-31T12:45:24;3.22;;;2.50;;
7001;SDS011;3541;53.230;10.518;2023-07-31T12:47:50;2.80;;;2.47;;
7001;SDS011;3541;53.230;10.518;2023-07-31T12:50:17;2.58;;;2.38;;
7001;SDS011;3541;53.230;10.518;2023-07-31T12:52:44;2.60;;;2.10;;
7001;SDS011;3541;53.230;10.518;2023-07-31T12:55:10;2.60;;;2.40;;
7001;SDS011;3541;53.230;10.518;2023-07-31T12:57:37;2.30;;;2.08;;
7001;SDS011;3541;53.230;10.518;2023-07-31T13:00:05;2.13;;;2.00;;
7001;SDS011;3541;53.230;10.518;2023-07-31T13:02:34;2.60;;;2.40;;
7001;SDS011;3541;53.230;10.518;2023-07-31T13:05:00;2.63;;;2.30;;
7001;SDS011;3541;53.230;10.518;2023-07-31T13:07:27;2.70;;;2.50;;
7001;SDS011;3541;53.230;10.518;2023-07-31T13:09:54;3.35;;;2.70;;
7001;SDS011;3541;53.230;10.518;2023-07-31T13:12:20;2.35;;;2.10;;
7001;SDS011;3541;53.230;10.518;2023-07-31T13:14:47;2.95;;;2.63;;
7001;SDS011;3541;53.230;10.518;2023-07-31T13:17:13;2.40;;;2.20;;
7001;SDS011;3541;53.230;10.518;2023-07-31T13:19:41;3.53;;;2.30;;
7001;SDS011;3541;53.230;10.518;2023-07-31T13:22:08;2.42;;;2.13;;
7001;SDS011;3541;53.230;10.518;2023-07-31T13:24:35;2.90;;;2.60;;
7001;SDS011;3541;53.230;10.518;2023-07-31T13:27:01;3.00;;;2.78;;
7001;SDS011;3541;53.230;10.518;2023-07-31T13:29:29;3.15;;;2.75;;
7001;SDS011;3541;53.230;10.518;2023-07-31T13:31:57;2.55;;;2.10;;
7001;SDS011;3541;53.230;10.518;2023-07-31T13:34:23;2.30;;;2.10;;
7001;SDS011;3541;53.230;10.518;2023-07-31T13:36:53;2.53;;;2.33;;
7001;SDS011;3541;53.230;10.518;2023-07-31T13:39:21;2.40;;;2.20;;
7001;SDS011;3541;53.230;10.518;2023-07-31T13:41:48;2.47;;;2.28;;
7001;SDS011;3541;53.230;10.518;2023-07-31T13:44:14;2.42;;;2.22;;
7001;SDS011;3541;53.230;10.518;2023-07-31T13:46:41;1.98;;;1.88;;
7001;SDS011;3541;53.230;10.518;2023-07-31T13:49:07;1.80;;;1.70;;
7001;SDS011;3541;53.230;10.518;2023-07-31T13:51:34;1.92;;;1.75;;
7001;SDS011;3541;53.230;10.518;2023-07-31T13:54:02;1.60;;;1.50;;
7001;SDS011;3541;53.230;10.518;2023-07-31T13:56:28;2.00;;;1.80;;
7001;SDS011;3541;53.230;10.518;2023-07-31T13:58:55;2.28;;;2.00;;
7001;SDS011;3541;53.230;10.518;2023-07-31T14:01:22;2.15;;;1.95;;
7001;SDS011;3541;53.230;10.518;2023-07-31T14:03:49;2.20;;;2.00;;
7001;SDS011;3541;53.230;10.518;2023-07-31T14:06:15;2.28;;;2.08;;
7001;SDS011;3541;53.230;10.518;2023-07-31T14:08:42;1.95;;;1.80;;
7001;SDS011;3541;53.230;10.518;2023-07-31T14:11:10;1.98;;;1.88;;
7001;SDS011;3541;53.230;10.518;2023-07-31T14:13:36;1.95;;;1.75;;
7001;SDS011;3541;53.230;10.518;2023-07-31T14:16:03;2.10;;;1.80;;
7001;SDS011;3541;53.230;10.518;2023-07-31T14:18:30;2.15;;;1.95;;
7001;SDS011;3541;53.230;10.518;2023-07-31T14:20:56;1.75;;;1.65;;
7001;SDS011;3541;53.230;10.518;2023-07-31T14:23:23;2.00;;;1.90;;
7001;SDS011;3541;53.230;10.518;2023-07-31T14:25:50;2.20;;;2.00;;
7001;SDS011;3541;53.230;10.518;2023-07-31T14:28:18;2.20;;;1.95;;
7001;SDS011;3541;53.230;10.518;2023-07-31T14:30:44;2.20;;;2.00;;
7001;SDS011;3541;53.230;10.518;2023-07-31T14:33:11;2.50;;;2.30;;
7001;SDS011;3541;53.230;10.518;2023-07-31T14:35:37;2.65;;;2.33;;
7001;SDS011;3541;53.230;10.518;2023-07-31T14:38:04;2.28;;;2.08;;
7001;SDS011;3541;53.230;10.518;2023-07-31T14:40:31;2.60;;;2.40;;
7001;SDS011;3541;53.230;10.518;2023-07-31T14:42:57;2.80;;;2.50;;
7001;SDS011;3541;53.230;10.518;2023-07-31T14:45:25;2.80;;;2.55;;
7001;SDS011;3541;53.230;10.518;2023-07-31T14:47:52;2.53;;;2.33;;
7001;SDS011;3541;53.230;10.518;2023-07-31T14:50:19;2.50;;;2.30;;
7001;SDS011;3541;53.230;10.518;2023-07-31T14:52:46;3.20;;;2.92;;
7001;SDS011;3541;53.230;10.518;2023-07-31T14:55:13;2.55;;;2.35;;
7001;SDS011;3541;53.230;10.518;2023-07-31T14:57:40;2.50;;;2.30;;
7001;SDS011;3541;53.230;10.518;2023-07-31T15:00:07;2.58;;;2.38;;
7001;SDS011;3541;53.230;10.518;2023-07-31T15:02:36;3.28;;;2.60;;